createdAt,value
2019-06-25T00:01:23.921Z,6.40
2019-06-25T00:03:55.771Z,5.97
2019-06-25T00:06:27.657Z,7.00
2019-06-25T00:08:58.636Z,6.47
2019-06-25T00:11:30.504Z,7.20
2019-06-25T00:14:01.854Z,6.93
2019-06-25T00:16:33.183Z,6.53
2019-06-25T00:19:04.754Z,6.97
2019-06-25T00:21:35.720Z,6.77
2019-06-25T00:24:07.721Z,6.87
2019-06-25T00:26:38.940Z,6.57
2019-06-25T00:29:10.553Z,7.00
2019-06-25T00:31:41.857Z,6.73
2019-06-25T00:34:12.830Z,6.80
2019-06-25T00:36:44.093Z,6.97
2019-06-25T00:39:15.429Z,7.33
2019-06-25T00:41:47.294Z,6.67
2019-06-25T00:44:19.163Z,6.60
2019-06-25T00:46:50.128Z,7.50
2019-06-25T00:49:21.687Z,6.90
2019-06-25T00:51:52.930Z,7.17
2019-06-25T00:54:24.246Z,6.67
2019-06-25T00:56:55.780Z,7.20
2019-06-25T00:59:27.404Z,6.80
2019-06-25T01:02:09.345Z,7.00
2019-06-25T01:04:40.924Z,6.60
2019-06-25T01:07:11.851Z,6.67
2019-06-25T01:09:42.539Z,6.90
2019-06-25T01:12:13.697Z,6.67
2019-06-25T01:14:45.543Z,6.83
2019-06-25T01:17:16.816Z,6.97
2019-06-25T01:19:47.758Z,6.57
2019-06-25T01:22:18.505Z,7.20
2019-06-25T01:24:49.469Z,7.67
2019-06-25T01:27:21.511Z,7.17
2019-06-25T01:29:52.527Z,7.20
2019-06-25T01:32:24.526Z,7.10
2019-06-25T01:34:55.912Z,7.23
2019-06-25T01:37:27.180Z,7.03
2019-06-25T01:39:58.750Z,6.83
2019-06-25T01:42:30.292Z,7.27
2019-06-25T01:45:01.849Z,7.10
2019-06-25T01:47:32.843Z,6.83
2019-06-25T01:50:04.526Z,6.90
2019-06-25T01:52:36.060Z,6.90
2019-06-25T01:55:07.012Z,7.50
2019-06-25T01:57:38.379Z,7.37
2019-06-25T02:00:12.066Z,6.70
2019-06-25T02:02:43.390Z,7.03
2019-06-25T02:05:15.467Z,7.90
2019-06-25T02:07:46.843Z,7.53
2019-06-25T02:10:22.599Z,7.20
2019-06-25T02:12:51.584Z,7.40
2019-06-25T02:15:22.869Z,6.93
2019-06-25T02:17:53.643Z,7.00
2019-06-25T02:20:24.951Z,7.47
2019-06-25T02:22:56.240Z,7.70
2019-06-25T02:25:27.864Z,7.03
2019-06-25T02:27:59.711Z,7.30
2019-06-25T02:30:31.273Z,7.80
2019-06-25T02:33:03.228Z,7.97
2019-06-25T02:35:34.501Z,7.10
2019-06-25T02:38:05.854Z,7.37
2019-06-25T02:40:37.075Z,7.27
2019-06-25T02:43:07.892Z,7.57
2019-06-25T02:45:39.167Z,7.60
2019-06-25T02:48:10.429Z,7.23
2019-06-25T02:50:42.065Z,7.73
2019-06-25T02:53:13.714Z,7.40
2019-06-25T02:55:45.573Z,7.87
2019-06-25T02:58:17.549Z,8.20
2019-06-25T03:00:49.103Z,8.43
2019-06-25T03:03:21.096Z,7.40
2019-06-25T03:05:52.468Z,7.83
2019-06-25T03:08:23.399Z,8.40
2019-06-25T03:10:54.398Z,8.07
2019-06-25T03:13:26.057Z,8.33
2019-06-25T03:15:57.662Z,7.60
2019-06-25T03:18:29.315Z,7.90
2019-06-25T03:21:00.638Z,8.23
2019-06-25T03:23:32.502Z,7.83
2019-06-25T03:26:04.366Z,8.03
2019-06-25T03:28:35.897Z,8.30
2019-06-25T03:31:07.112Z,8.43
2019-06-25T03:33:38.114Z,7.90
2019-06-25T03:36:09.400Z,8.73
2019-06-25T03:38:40.713Z,8.40
2019-06-25T03:41:12.781Z,8.50
2019-06-25T03:43:43.777Z,8.40
2019-06-25T03:46:15.067Z,7.53
2019-06-25T03:48:46.312Z,9.10
2019-06-25T03:51:17.873Z,8.13
2019-06-25T03:53:49.397Z,7.77
2019-06-25T03:56:20.418Z,8.53
2019-06-25T03:58:52.010Z,8.30
2019-06-25T04:01:23.250Z,8.53
2019-06-25T04:03:54.845Z,8.30
2019-06-25T04:06:26.418Z,8.03
2019-06-25T04:09:06.549Z,7.60
2019-06-25T04:11:37.881Z,7.90
2019-06-25T04:14:09.621Z,8.20
2019-06-25T04:16:40.681Z,8.13
2019-06-25T04:19:11.995Z,8.30
2019-06-25T04:21:43.582Z,7.57
2019-06-25T04:24:14.786Z,8.23
2019-06-25T04:26:46.620Z,7.63
2019-06-25T04:29:17.864Z,8.23
2019-06-25T04:31:49.155Z,7.43
2019-06-25T04:34:20.701Z,7.80
2019-06-25T04:36:52.255Z,7.97
2019-06-25T04:39:23.542Z,7.93
2019-06-25T04:41:55.091Z,8.07
2019-06-25T04:44:26.403Z,7.73
2019-06-25T04:46:57.381Z,7.80
2019-06-25T04:49:29.011Z,7.93
2019-06-25T04:52:00.018Z,7.43
2019-06-25T04:54:31.614Z,9.13
2019-06-25T04:57:02.896Z,8.80
2019-06-25T04:59:34.459Z,9.30
2019-06-25T05:02:05.992Z,18.23
2019-06-25T05:04:37.658Z,10.03
2019-06-25T05:07:09.299Z,13.10
2019-06-25T05:09:41.386Z,18.37
2019-06-25T05:12:12.988Z,12.60
2019-06-25T05:14:45.360Z,9.73
2019-06-25T05:17:16.655Z,9.63
2019-06-25T05:19:48.494Z,9.20
2019-06-25T05:22:20.188Z,8.50
2019-06-25T05:24:51.880Z,8.50
2019-06-25T05:27:23.772Z,9.30
2019-06-25T05:29:55.323Z,8.90
2019-06-25T05:32:26.868Z,9.10
2019-06-25T05:34:58.118Z,8.77
2019-06-25T05:37:36.876Z,9.10
2019-06-25T05:40:09.182Z,8.17
2019-06-25T05:42:40.750Z,9.00
2019-06-25T05:45:14.363Z,8.40
2019-06-25T05:47:45.931Z,8.73
2019-06-25T05:50:17.967Z,8.87
2019-06-25T05:52:49.826Z,8.70
2019-06-25T05:55:21.558Z,8.47
2019-06-25T05:57:52.502Z,8.90
2019-06-25T06:00:24.297Z,8.87
2019-06-25T06:02:56.180Z,8.43
2019-06-25T06:05:28.167Z,9.10
2019-06-25T06:08:00.027Z,8.63
2019-06-25T06:10:31.950Z,8.33
2019-06-25T06:13:03.133Z,8.10
2019-06-25T06:15:34.720Z,16.10
2019-06-25T06:18:38.988Z,12.33
2019-06-25T06:21:10.362Z,8.47
2019-06-25T06:23:41.741Z,8.13
2019-06-25T06:26:18.184Z,7.60
2019-06-25T06:28:46.927Z,8.17
2019-06-25T06:31:18.519Z,8.07
2019-06-25T06:33:50.811Z,7.80
2019-06-25T06:36:22.470Z,8.63
2019-06-25T06:38:55.744Z,8.63
2019-06-25T06:41:27.091Z,7.97
2019-06-25T06:43:58.364Z,8.60
2019-06-25T06:46:29.969Z,8.10
2019-06-25T06:49:01.504Z,7.50
2019-06-25T06:51:32.529Z,7.70
2019-06-25T06:54:03.955Z,7.80
2019-06-25T06:56:35.321Z,8.60
2019-06-25T06:59:06.929Z,7.97
2019-06-25T07:01:38.209Z,7.90
2019-06-25T07:04:09.955Z,7.87
2019-06-25T07:06:41.446Z,8.33
2019-06-25T07:09:13.311Z,8.00
2019-06-25T07:11:45.005Z,8.20
2019-06-25T07:14:16.868Z,8.40
2019-06-25T07:16:48.446Z,8.10
2019-06-25T07:19:19.997Z,7.77
2019-06-25T07:21:50.976Z,8.83
2019-06-25T07:24:22.705Z,8.60
2019-06-25T07:26:54.765Z,8.50
2019-06-25T07:29:25.849Z,7.50
2019-06-25T07:31:57.180Z,8.17
2019-06-25T07:34:28.365Z,8.50
2019-06-25T07:36:59.990Z,8.33
2019-06-25T07:39:32.085Z,8.57
2019-06-25T07:42:03.469Z,8.67
2019-06-25T07:44:35.029Z,8.60
2019-06-25T07:47:06.661Z,8.00
2019-06-25T07:49:38.029Z,8.77
2019-06-25T07:52:10.452Z,8.70
2019-06-25T07:54:41.506Z,8.43
2019-06-25T07:57:12.849Z,8.57
2019-06-25T07:59:44.373Z,8.50
2019-06-25T08:02:16.447Z,8.47
2019-06-25T08:04:48.320Z,8.70
2019-06-25T08:07:19.424Z,8.70
2019-06-25T08:09:51.476Z,8.60
2019-06-25T08:12:22.911Z,8.13
2019-06-25T08:14:55.033Z,8.90
2019-06-25T08:17:26.378Z,7.90
2019-06-25T08:19:58.103Z,8.20
2019-06-25T08:22:29.408Z,8.70
2019-06-25T08:25:01.273Z,8.10
2019-06-25T08:27:32.409Z,8.27
2019-06-25T08:30:04.479Z,8.50
2019-06-25T08:32:36.361Z,8.23
2019-06-25T08:35:07.558Z,8.63
2019-06-25T08:37:38.307Z,8.57
2019-06-25T08:40:19.540Z,8.97
2019-06-25T08:42:43.579Z,9.10
2019-06-25T08:45:20.040Z,8.90
2019-06-25T08:47:52.039Z,8.10
2019-06-25T08:50:24.222Z,9.30
2019-06-25T08:52:58.474Z,8.60
2019-06-25T08:55:28.535Z,8.67
2019-06-25T08:58:00.488Z,9.20
2019-06-25T09:00:32.201Z,8.13
2019-06-25T09:03:03.524Z,8.30
2019-06-25T09:05:34.582Z,8.87
2019-06-25T09:08:05.320Z,8.00
2019-06-25T09:10:36.649Z,7.80
2019-06-25T09:13:08.038Z,8.80
2019-06-25T09:15:39.845Z,8.73
2019-06-25T09:18:11.665Z,8.67
2019-06-25T09:20:43.626Z,8.27
2019-06-25T09:23:15.310Z,7.67
2019-06-25T09:25:46.378Z,8.33
2019-06-25T09:28:18.150Z,8.63
2019-06-25T09:30:49.295Z,8.57
2019-06-25T09:33:20.925Z,7.57
2019-06-25T09:35:52.643Z,8.20
2019-06-25T09:38:24.534Z,8.10
2019-06-25T09:40:52.942Z,8.17
2019-06-25T09:43:21.659Z,8.00
2019-06-25T09:45:53.953Z,7.90
2019-06-25T09:48:25.756Z,8.10
2019-06-25T09:50:57.000Z,7.90
2019-06-25T09:53:28.888Z,8.30
2019-06-25T09:56:00.281Z,8.27
2019-06-25T09:58:32.087Z,8.97
2019-06-25T10:01:04.047Z,7.13
2019-06-25T10:03:35.504Z,6.20
2019-06-25T10:06:07.010Z,6.93
2019-06-25T10:08:38.114Z,7.03
2019-06-25T10:11:12.522Z,7.17
2019-06-25T10:13:44.094Z,7.30
2019-06-25T10:16:15.587Z,6.03
2019-06-25T10:18:47.341Z,6.90
2019-06-25T10:21:18.473Z,6.93
2019-06-25T10:23:50.634Z,7.00
2019-06-25T10:26:22.472Z,6.80
2019-06-25T10:28:53.858Z,7.07
2019-06-25T10:31:25.822Z,6.40
2019-06-25T10:33:56.936Z,5.53
2019-06-25T10:36:28.747Z,5.70
2019-06-25T10:39:00.190Z,5.10
2019-06-25T10:41:31.979Z,4.60
2019-06-25T10:44:03.736Z,6.03
2019-06-25T10:46:36.012Z,5.63
2019-06-25T10:49:07.456Z,5.53
2019-06-25T10:51:38.606Z,5.73
2019-06-25T10:54:09.746Z,5.00
2019-06-25T10:56:40.642Z,4.60
2019-06-25T10:59:12.196Z,5.27
2019-06-25T11:01:44.058Z,5.50
2019-06-25T11:04:15.305Z,5.40
2019-06-25T11:06:58.825Z,5.10
2019-06-25T11:09:20.089Z,5.20
2019-06-25T11:11:52.378Z,5.07
2019-06-25T11:14:23.799Z,5.27
2019-06-25T11:16:55.530Z,5.37
2019-06-25T11:19:27.427Z,5.00
2019-06-25T11:21:59.582Z,5.23
2019-06-25T11:24:31.191Z,5.30
2019-06-25T11:27:02.533Z,4.93
2019-06-25T11:29:34.473Z,5.37
2019-06-25T11:32:05.467Z,4.80
2019-06-25T11:34:37.728Z,5.03
2019-06-25T11:37:09.632Z,5.00
2019-06-25T11:39:41.066Z,5.50
2019-06-25T11:42:12.784Z,5.40
2019-06-25T11:44:44.169Z,5.13
2019-06-25T11:47:15.240Z,5.30
2019-06-25T11:49:46.720Z,5.83
2019-06-25T11:52:18.848Z,5.17
2019-06-25T11:54:50.683Z,5.30
2019-06-25T11:57:22.113Z,5.17
2019-06-25T11:59:53.133Z,4.90
2019-06-25T12:02:24.569Z,5.17
2019-06-25T12:04:55.568Z,5.60
2019-06-25T12:07:27.485Z,5.17
2019-06-25T12:09:58.814Z,5.40
2019-06-25T12:12:30.256Z,4.80
2019-06-25T12:15:01.740Z,5.00
2019-06-25T12:17:33.584Z,4.70
2019-06-25T12:20:05.715Z,5.40
2019-06-25T12:22:37.799Z,4.80
2019-06-25T12:25:11.316Z,4.60
2019-06-25T12:27:42.487Z,4.80
2019-06-25T12:30:15.545Z,4.30
2019-06-25T12:32:48.417Z,5.20
2019-06-25T12:35:20.265Z,4.50
2019-06-25T12:37:52.457Z,4.80
2019-06-25T12:40:24.529Z,4.60
2019-06-25T12:42:56.065Z,4.70
2019-06-25T12:45:27.816Z,4.77
2019-06-25T12:47:59.676Z,4.70
2019-06-25T12:50:31.044Z,4.60
2019-06-25T12:53:02.380Z,5.03
2019-06-25T12:55:33.150Z,5.10
2019-06-25T12:58:04.294Z,4.30
2019-06-25T13:00:36.078Z,4.53
2019-06-25T13:03:07.756Z,4.50
2019-06-25T13:05:40.052Z,4.50
2019-06-25T13:08:12.199Z,3.93
2019-06-25T13:10:44.922Z,3.97
2019-06-25T13:13:16.786Z,4.10
2019-06-25T13:15:48.490Z,4.07
2019-06-25T13:18:20.459Z,4.87
2019-06-25T13:20:52.331Z,4.47
2019-06-25T13:23:24.081Z,4.50
2019-06-25T13:25:56.093Z,4.93
2019-06-25T13:28:27.138Z,4.30
2019-06-25T13:30:58.778Z,4.27
2019-06-25T13:33:30.640Z,4.27
2019-06-25T13:36:01.910Z,4.53
2019-06-25T13:38:32.932Z,4.30
2019-06-25T13:41:03.903Z,4.10
2019-06-25T13:43:35.444Z,4.10
2019-06-25T13:46:06.990Z,4.13
2019-06-25T13:48:38.444Z,4.17
2019-06-25T13:51:10.560Z,4.37
2019-06-25T13:53:42.401Z,4.60
2019-06-25T13:56:14.521Z,4.27
2019-06-25T13:58:46.352Z,4.50
2019-06-25T14:01:17.529Z,4.90
2019-06-25T14:03:49.013Z,4.50
2019-06-25T14:06:20.142Z,4.33
2019-06-25T14:08:51.645Z,4.37
2019-06-25T14:11:23.438Z,4.60
2019-06-25T14:13:55.407Z,4.60
2019-06-25T14:16:27.110Z,4.97
2019-06-25T14:18:58.525Z,4.70
2019-06-25T14:21:29.961Z,4.20
2019-06-25T14:24:01.724Z,4.60
2019-06-25T14:26:33.364Z,4.53
2019-06-25T14:29:04.985Z,4.27
2019-06-25T14:31:36.353Z,4.30
2019-06-25T14:34:07.951Z,4.47
2019-06-25T14:36:39.649Z,4.37
2019-06-25T14:39:10.940Z,4.23
2019-06-25T14:41:43.616Z,4.37
2019-06-25T14:44:15.239Z,4.30
2019-06-25T14:46:46.307Z,4.30
2019-06-25T14:49:17.776Z,4.47
2019-06-25T14:51:50.580Z,4.57
2019-06-25T14:54:22.069Z,4.53
2019-06-25T14:56:56.669Z,4.67
2019-06-25T14:59:26.986Z,4.63
2019-06-25T15:01:59.151Z,4.47
2019-06-25T15:04:30.544Z,4.00
2019-06-25T15:07:02.435Z,4.17
2019-06-25T15:09:44.259Z,4.03
2019-06-25T15:12:07.603Z,3.90
2019-06-25T15:14:39.365Z,3.77
2019-06-25T15:17:10.985Z,4.13
2019-06-25T15:19:42.400Z,4.03
2019-06-25T15:22:13.441Z,3.77
2019-06-25T15:24:44.859Z,3.80
2019-06-25T15:27:16.780Z,3.93
2019-06-25T15:29:48.642Z,3.80
2019-06-25T15:32:20.428Z,3.70
2019-06-25T15:34:51.892Z,3.70
2019-06-25T15:37:23.457Z,3.50
2019-06-25T15:39:54.922Z,4.20
2019-06-25T15:42:26.565Z,3.70
2019-06-25T15:44:58.229Z,3.53
2019-06-25T15:47:30.185Z,3.70
2019-06-25T15:50:02.057Z,3.50
2019-06-25T15:52:34.173Z,3.93
2019-06-25T15:55:06.433Z,4.20
2019-06-25T15:57:37.895Z,4.10
2019-06-25T16:00:10.248Z,3.97
2019-06-25T16:02:41.381Z,4.00
2019-06-25T16:05:13.224Z,4.00
2019-06-25T16:07:45.177Z,4.10
2019-06-25T16:10:16.830Z,4.27
2019-06-25T16:12:48.986Z,4.33
2019-06-25T16:15:20.910Z,4.30
2019-06-25T16:17:52.662Z,4.23
2019-06-25T16:20:24.083Z,4.00
2019-06-25T16:22:55.595Z,4.17
2019-06-25T16:25:27.415Z,4.20
2019-06-25T16:27:59.415Z,4.10
2019-06-25T16:30:30.821Z,4.10
2019-06-25T16:33:02.269Z,4.40
2019-06-25T16:35:34.449Z,4.30
2019-06-25T16:38:06.533Z,4.40
2019-06-25T16:40:38.333Z,4.23
2019-06-25T16:43:10.188Z,4.57
2019-06-25T16:45:42.100Z,4.60
2019-06-25T16:48:13.808Z,4.80
2019-06-25T16:50:45.943Z,4.90
2019-06-25T16:53:17.916Z,4.60
2019-06-25T16:55:49.184Z,4.63
2019-06-25T16:58:21.098Z,5.17
2019-06-25T17:00:52.676Z,4.93
2019-06-25T17:03:24.679Z,4.93
2019-06-25T17:05:56.745Z,5.37
2019-06-25T17:08:27.857Z,5.30
2019-06-25T17:10:59.103Z,5.00
2019-06-25T17:13:30.216Z,4.50
2019-06-25T17:16:01.463Z,5.13
2019-06-25T17:18:33.149Z,4.93
2019-06-25T17:21:05.021Z,5.17
2019-06-25T17:23:36.180Z,4.93
2019-06-25T17:26:08.234Z,5.20
2019-06-25T17:28:39.343Z,5.10
2019-06-25T17:31:10.643Z,4.90
2019-06-25T17:33:42.136Z,4.83
2019-06-25T17:36:14.297Z,4.50
2019-06-25T17:38:45.845Z,4.90
2019-06-25T17:41:17.025Z,4.23
2019-06-25T17:43:49.293Z,4.80
2019-06-25T17:46:20.948Z,4.80
2019-06-25T17:48:53.328Z,5.00
2019-06-25T17:51:25.792Z,5.13
2019-06-25T17:53:57.591Z,4.57
2019-06-25T17:56:28.794Z,4.93
2019-06-25T17:59:00.518Z,4.90
2019-06-25T18:01:31.923Z,5.33
2019-06-25T18:04:03.610Z,5.47
2019-06-25T18:06:35.416Z,5.57
2019-06-25T18:09:09.877Z,5.70
2019-06-25T18:11:41.689Z,5.50
2019-06-25T18:14:13.570Z,5.90
2019-06-25T18:16:45.904Z,5.90
2019-06-25T18:19:17.007Z,6.10
2019-06-25T18:21:48.811Z,6.40
2019-06-25T18:24:20.987Z,6.13
2019-06-25T18:26:52.534Z,6.07
2019-06-25T18:29:24.285Z,6.03
2019-06-25T18:32:07.414Z,7.00
2019-06-25T18:34:28.918Z,6.50
2019-06-25T18:37:00.119Z,6.43
2019-06-25T18:39:31.606Z,7.13
2019-06-25T18:42:03.794Z,6.37
2019-06-25T18:44:35.123Z,6.47
2019-06-25T18:47:06.420Z,6.87
2019-06-25T18:49:39.278Z,6.73
2019-06-25T18:52:11.360Z,6.33
2019-06-25T18:54:42.902Z,6.23
2019-06-25T18:57:44.340Z,7.40
2019-06-25T19:00:16.212Z,6.50
2019-06-25T19:02:47.581Z,6.83
2019-06-25T19:05:19.545Z,6.87
2019-06-25T19:07:50.669Z,7.03
2019-06-25T19:10:38.941Z,6.90
2019-06-25T19:12:56.941Z,7.10
2019-06-25T19:15:28.725Z,7.60
2019-06-25T19:18:00.657Z,7.40
2019-06-25T19:20:31.978Z,7.50
2019-06-25T19:23:03.784Z,7.67
2019-06-25T19:25:34.905Z,7.67
2019-06-25T19:28:06.722Z,7.63
2019-06-25T19:30:38.679Z,7.40
2019-06-25T19:33:10.388Z,8.10
2019-06-25T19:35:42.110Z,8.00
2019-06-25T19:38:13.916Z,8.00
2019-06-25T19:40:55.437Z,7.90
2019-06-25T19:43:18.843Z,8.40
2019-06-25T19:45:49.862Z,8.17
2019-06-25T19:48:21.343Z,9.77
2019-06-25T19:50:53.182Z,11.93
2019-06-25T19:53:24.754Z,10.07
2019-06-25T19:55:56.236Z,11.07
2019-06-25T19:58:27.582Z,9.43
2019-06-25T20:00:59.499Z,9.17
2019-06-25T20:03:31.622Z,9.30
2019-06-25T20:06:02.967Z,9.20
2019-06-25T20:08:34.901Z,10.10
2019-06-25T20:11:12.778Z,9.77
2019-06-25T20:13:40.920Z,9.93
2019-06-25T20:16:11.381Z,9.60
2019-06-25T20:18:43.386Z,10.73
2019-06-25T20:21:15.301Z,11.03
2019-06-25T20:23:47.181Z,10.40
2019-06-25T20:26:19.463Z,10.90
2019-06-25T20:28:50.678Z,10.40
2019-06-25T20:31:22.354Z,10.17
2019-06-25T20:33:54.314Z,10.20
2019-06-25T20:36:25.424Z,10.60
2019-06-25T20:38:57.286Z,11.40
2019-06-25T20:41:29.457Z,11.40
2019-06-25T20:44:00.621Z,10.87
2019-06-25T20:46:32.715Z,11.27
2019-06-25T20:49:09.851Z,13.70
2019-06-25T20:51:36.536Z,33.77
2019-06-25T20:54:07.671Z,14.67
2019-06-25T20:56:38.747Z,11.43
2019-06-25T20:59:11.823Z,11.40
2019-06-25T21:01:43.543Z,10.90
2019-06-25T21:04:15.502Z,11.30
2019-06-25T21:06:46.756Z,12.10
2019-06-25T21:09:18.187Z,14.20
2019-06-25T21:11:49.943Z,13.37
2019-06-25T21:14:21.396Z,12.83
2019-06-25T21:16:53.424Z,12.70
2019-06-25T21:19:25.361Z,12.50
2019-06-25T21:21:56.717Z,12.13
2019-06-25T21:24:28.267Z,11.67
2019-06-25T21:26:58.975Z,12.40
2019-06-25T21:29:30.033Z,11.77
2019-06-25T21:32:01.386Z,10.83
2019-06-25T21:34:33.204Z,11.07
2019-06-25T21:37:04.725Z,12.27
2019-06-25T21:39:36.274Z,12.20
2019-06-25T21:42:08.194Z,11.80
2019-06-25T21:44:39.985Z,12.10
2019-06-25T21:47:12.118Z,11.90
2019-06-25T21:49:43.789Z,11.57
2019-06-25T21:52:15.194Z,11.43
2019-06-25T21:54:46.638Z,11.87
2019-06-25T21:57:17.911Z,11.77
2019-06-25T21:59:49.528Z,11.30
2019-06-25T22:02:25.208Z,11.30
2019-06-25T22:04:55.923Z,11.77
2019-06-25T22:07:27.475Z,12.40
2019-06-25T22:09:59.056Z,12.30
2019-06-25T22:12:30.626Z,12.90
2019-06-25T22:15:01.305Z,11.20
2019-06-25T22:17:31.987Z,11.50
2019-06-25T22:20:03.644Z,11.60
2019-06-25T22:22:34.622Z,11.60
2019-06-25T22:25:06.397Z,11.80
2019-06-25T22:27:38.033Z,11.37
2019-06-25T22:30:10.114Z,11.70
2019-06-25T22:32:42.171Z,11.30
2019-06-25T22:35:14.261Z,12.10
2019-06-25T22:37:45.230Z,11.50
2019-06-25T22:40:18.119Z,11.30
2019-06-25T22:42:50.031Z,11.30
2019-06-25T22:45:23.800Z,11.63
2019-06-25T22:47:55.777Z,12.70
2019-06-25T22:50:27.345Z,11.90
2019-06-25T22:52:59.236Z,13.03
2019-06-25T22:55:30.841Z,12.77
2019-06-25T22:58:02.483Z,12.77
2019-06-25T23:00:33.977Z,13.17
2019-06-25T23:03:05.950Z,13.33
2019-06-25T23:05:37.312Z,13.60
2019-06-25T23:08:09.135Z,13.23
2019-06-25T23:10:40.480Z,14.80
2019-06-25T23:13:11.721Z,13.60
2019-06-25T23:15:43.035Z,13.80
2019-06-25T23:18:14.638Z,13.17
2019-06-25T23:20:46.086Z,13.80
2019-06-25T23:23:17.694Z,14.00
2019-06-25T23:25:49.341Z,13.47
2019-06-25T23:28:20.630Z,13.90
2019-06-25T23:30:52.708Z,12.73
2019-06-25T23:33:24.654Z,13.53
2019-06-25T23:35:56.287Z,15.20
2019-06-25T23:38:27.633Z,14.13
2019-06-25T23:40:58.327Z,13.93
2019-06-25T23:43:29.909Z,14.90
2019-06-25T23:46:01.534Z,15.03
2019-06-25T23:48:33.110Z,13.57
2019-06-25T23:51:04.732Z,15.70
2019-06-25T23:53:36.012Z,14.53
2019-06-25T23:56:07.600Z,14.43
2019-06-25T23:58:39.155Z,14.47
